createdAt,value
2019-05-14T00:00:10.699Z,1030.30
2019-05-14T00:00:45.336Z,1030.31
2019-05-14T00:01:13.729Z,1030.30
2019-05-14T00:01:44.202Z,1030.29
2019-05-14T00:02:12.703Z,1030.29
2019-05-14T00:02:45.173Z,1030.25
2019-05-14T00:03:12.699Z,1030.24
2019-05-14T00:03:42.762Z,1030.24
2019-05-14T00:04:12.715Z,1030.22
2019-05-14T00:04:43.754Z,1030.23
2019-05-14T00:05:13.695Z,1030.27
2019-05-14T00:05:42.400Z,1030.23
2019-05-14T00:06:12.699Z,1030.22
2019-05-14T00:06:42.759Z,1030.22
2019-05-14T00:07:12.704Z,1030.20
2019-05-14T00:07:42.758Z,1030.28
2019-05-14T00:08:12.697Z,1030.20
2019-05-14T00:08:42.763Z,1030.20
2019-05-14T00:09:13.702Z,1030.17
2019-05-14T00:09:42.767Z,1030.18
2019-05-14T00:10:14.159Z,1030.17
2019-05-14T00:10:42.765Z,1030.19
2019-05-14T00:11:12.783Z,1030.16
2019-05-14T00:11:42.759Z,1030.21
2019-05-14T00:12:14.167Z,1030.17
2019-05-14T00:12:42.783Z,1030.17
2019-05-14T00:13:15.142Z,1030.19
2019-05-14T00:13:42.770Z,1030.17
2019-05-14T00:14:12.703Z,1030.15
2019-05-14T00:14:45.776Z,1030.17
2019-05-14T00:15:12.693Z,1030.17
2019-05-14T00:15:42.764Z,1030.16
2019-05-14T00:16:12.698Z,1030.15
2019-05-14T00:16:43.808Z,1030.24
2019-05-14T00:17:12.708Z,1030.19
2019-05-14T00:17:42.758Z,1030.12
2019-05-14T00:18:12.705Z,1030.18
2019-05-14T00:18:42.758Z,1030.11
2019-05-14T00:19:12.703Z,1030.10
2019-05-14T00:19:42.770Z,1030.15
2019-05-14T00:20:13.707Z,1030.13
2019-05-14T00:20:44.124Z,1030.12
2019-05-14T00:21:13.707Z,1030.10
2019-05-14T00:21:45.395Z,1030.06
2019-05-14T00:22:12.705Z,1030.07
2019-05-14T00:22:44.138Z,1030.16
2019-05-14T00:23:12.698Z,1030.08
2019-05-14T00:23:45.108Z,1030.13
2019-05-14T00:24:12.707Z,1030.10
2019-05-14T00:24:42.762Z,1030.13
2019-05-14T00:25:12.701Z,1030.08
2019-05-14T00:25:42.769Z,1030.13
2019-05-14T00:26:13.707Z,1030.11
2019-05-14T00:26:43.770Z,1030.08
2019-05-14T00:27:12.710Z,1030.06
2019-05-14T00:27:42.763Z,1030.08
2019-05-14T00:28:12.703Z,1030.07
2019-05-14T00:28:43.759Z,1030.04
2019-05-14T00:29:12.817Z,1030.05
2019-05-14T00:29:42.759Z,1030.06
2019-05-14T00:30:12.699Z,1030.15
2019-05-14T00:30:42.762Z,1030.03
2019-05-14T00:31:14.239Z,1030.08
2019-05-14T00:31:43.767Z,1030.05
2019-05-14T00:32:15.289Z,1030.02
2019-05-14T00:32:42.765Z,1030.03
2019-05-14T00:33:14.256Z,1030.03
2019-05-14T00:33:42.835Z,1030.01
2019-05-14T00:34:15.213Z,1030.03
2019-05-14T00:34:43.769Z,1029.99
2019-05-14T00:35:12.709Z,1030.00
2019-05-14T00:35:42.774Z,1029.96
2019-05-14T00:36:12.706Z,1029.96
2019-05-14T00:36:42.767Z,1029.95
2019-05-14T00:37:12.741Z,1029.98
2019-05-14T00:37:42.769Z,1029.97
2019-05-14T00:38:12.714Z,1029.95
2019-05-14T00:38:42.769Z,1029.97
2019-05-14T00:39:12.716Z,1029.93
2019-05-14T00:39:42.769Z,1029.98
2019-05-14T00:40:12.705Z,1029.95
2019-05-14T00:40:42.774Z,1029.93
2019-05-14T00:41:12.711Z,1029.94
2019-05-14T00:41:44.342Z,1029.92
2019-05-14T00:42:13.753Z,1029.96
2019-05-14T00:42:45.337Z,1029.86
2019-05-14T00:43:12.713Z,1029.94
2019-05-14T00:43:44.367Z,1029.90
2019-05-14T00:44:10.701Z,1029.89
2019-05-14T00:44:54.227Z,1029.88
2019-05-14T00:45:12.709Z,1029.87
2019-05-14T00:45:42.769Z,1029.95
2019-05-14T00:46:12.705Z,1029.87
2019-05-14T00:46:42.769Z,1029.83
2019-05-14T00:47:12.713Z,1029.84
2019-05-14T00:47:42.763Z,1029.87
2019-05-14T00:48:12.558Z,1029.84
2019-05-14T00:48:42.771Z,1029.84
2019-05-14T00:49:12.712Z,1029.84
2019-05-14T00:49:42.565Z,1029.81
2019-05-14T00:50:12.738Z,1029.77
2019-05-14T00:50:43.774Z,1029.78
2019-05-14T00:51:12.717Z,1029.78
2019-05-14T00:51:42.779Z,1029.76
2019-05-14T00:52:14.437Z,1029.75
2019-05-14T00:52:46.181Z,1029.76
2019-05-14T00:53:15.390Z,1029.80
2019-05-14T00:53:43.768Z,1029.85
2019-05-14T00:54:18.425Z,1029.78
2019-05-14T00:54:42.777Z,1029.81
2019-05-14T00:55:15.494Z,1029.79
2019-05-14T00:55:43.773Z,1029.79
2019-05-14T00:56:12.717Z,1029.79
2019-05-14T00:56:42.769Z,1029.76
2019-05-14T00:57:12.710Z,1029.78
2019-05-14T00:57:43.807Z,1029.80
2019-05-14T00:58:12.716Z,1029.76
2019-05-14T00:58:42.767Z,1029.79
2019-05-14T00:59:12.710Z,1029.76
2019-05-14T00:59:42.767Z,1029.77
2019-05-14T01:00:12.720Z,1029.77
2019-05-14T01:00:42.769Z,1029.80
2019-05-14T01:01:12.706Z,1029.81
2019-05-14T01:01:43.768Z,1029.74
2019-05-14T01:02:12.710Z,1029.80
2019-05-14T01:02:44.454Z,1029.78
2019-05-14T01:03:12.709Z,1029.76
2019-05-14T01:04:12.709Z,1029.77
2019-05-14T01:04:44.245Z,1029.83
2019-05-14T01:05:13.713Z,1029.80
2019-05-14T01:05:45.219Z,1029.79
2019-05-14T01:06:12.717Z,1029.78
2019-05-14T01:06:42.770Z,1029.80
2019-05-14T01:07:12.723Z,1029.79
2019-05-14T01:07:43.772Z,1029.78
2019-05-14T01:08:13.717Z,1029.84
2019-05-14T01:08:42.774Z,1029.83
2019-05-14T01:09:12.713Z,1029.80
2019-05-14T01:09:42.773Z,1029.79
2019-05-14T01:10:12.715Z,1029.80
2019-05-14T01:10:42.774Z,1029.76
2019-05-14T01:11:12.712Z,1029.75
2019-05-14T01:11:42.768Z,1029.79
2019-05-14T01:12:13.713Z,1029.74
2019-05-14T01:12:42.775Z,1029.71
2019-05-14T01:13:14.147Z,1029.74
2019-05-14T01:13:42.773Z,1029.75
2019-05-14T01:14:15.307Z,1029.75
2019-05-14T01:14:43.773Z,1029.77
2019-05-14T01:15:21.484Z,1029.74
2019-05-14T01:15:42.771Z,1029.75
2019-05-14T01:16:43.770Z,1029.73
2019-05-14T01:17:12.722Z,1029.72
2019-05-14T01:17:43.782Z,1029.75
2019-05-14T01:18:12.752Z,1029.76
2019-05-14T01:19:12.335Z,1029.75
2019-05-14T01:19:42.781Z,1029.79
2019-05-14T01:20:13.712Z,1029.77
2019-05-14T01:20:42.774Z,1029.80
2019-05-14T01:21:42.777Z,1029.80
2019-05-14T01:22:13.717Z,1029.79
2019-05-14T01:22:42.319Z,1029.82
2019-05-14T01:23:12.719Z,1029.81
2019-05-14T01:24:12.545Z,1029.83
2019-05-14T01:24:45.089Z,1029.81
2019-05-14T01:25:13.719Z,1029.79
2019-05-14T01:25:44.371Z,1029.82
2019-05-14T01:26:45.338Z,1029.80
2019-05-14T01:27:13.721Z,1029.80
2019-05-14T01:27:42.778Z,1029.79
2019-05-14T01:28:12.716Z,1029.78
2019-05-14T01:29:12.719Z,1029.78
2019-05-14T01:29:42.877Z,1029.79
2019-05-14T01:30:12.418Z,1029.74
2019-05-14T01:30:42.773Z,1029.72
2019-05-14T01:31:42.783Z,1029.73
2019-05-14T01:32:12.709Z,1029.68
2019-05-14T01:32:43.004Z,1029.73
2019-05-14T01:33:12.711Z,1029.72
2019-05-14T01:33:42.780Z,1029.68
2019-05-14T01:34:14.122Z,1029.70
2019-05-14T01:34:42.782Z,1029.70
2019-05-14T01:35:15.277Z,1029.68
2019-05-14T01:35:43.774Z,1029.72
2019-05-14T01:36:42.774Z,1029.69
2019-05-14T01:37:15.056Z,1029.64
2019-05-14T01:37:42.782Z,1029.65
2019-05-14T01:38:12.720Z,1029.61
2019-05-14T01:38:42.778Z,1029.62
2019-05-14T01:39:12.735Z,1029.62
2019-05-14T01:39:42.782Z,1029.64
2019-05-14T01:40:12.724Z,1029.58
2019-05-14T01:40:42.783Z,1029.59
2019-05-14T01:41:12.745Z,1029.60
2019-05-14T01:41:43.781Z,1029.59
2019-05-14T01:42:13.719Z,1029.55
2019-05-14T01:42:42.784Z,1029.60
2019-05-14T01:43:12.722Z,1029.58
2019-05-14T01:44:12.720Z,1029.64
2019-05-14T01:44:44.284Z,1029.59
2019-05-14T01:45:24.951Z,1029.63
2019-05-14T01:45:45.394Z,1029.63
2019-05-14T01:46:44.202Z,1029.64
2019-05-14T01:47:12.629Z,1029.62
2019-05-14T01:47:45.168Z,1029.63
2019-05-14T01:48:12.722Z,1029.64
2019-05-14T01:49:13.717Z,1029.57
2019-05-14T01:49:43.821Z,1029.62
2019-05-14T01:50:12.726Z,1029.59
2019-05-14T01:50:42.782Z,1029.58
2019-05-14T01:51:42.779Z,1029.57
2019-05-14T01:52:12.732Z,1029.56
2019-05-14T01:52:42.779Z,1029.57
2019-05-14T01:53:12.730Z,1029.56
2019-05-14T01:54:12.724Z,1029.52
2019-05-14T01:54:43.783Z,1029.52
2019-05-14T01:55:14.168Z,1029.50
2019-05-14T01:55:42.781Z,1029.54
2019-05-14T01:56:43.786Z,1029.53
2019-05-14T01:57:14.139Z,1029.51
2019-05-14T01:57:42.426Z,1029.50
2019-05-14T01:58:15.102Z,1029.54
2019-05-14T01:59:13.722Z,1029.56
2019-05-14T01:59:43.784Z,1029.55
2019-05-14T02:00:12.745Z,1029.50
2019-05-14T02:00:42.784Z,1029.54
2019-05-14T02:01:42.778Z,1029.52
2019-05-14T02:02:12.793Z,1029.53
2019-05-14T02:02:42.779Z,1029.53
2019-05-14T02:03:13.722Z,1029.48
2019-05-14T02:04:13.721Z,1029.52
2019-05-14T02:04:43.789Z,1029.52
2019-05-14T02:05:13.751Z,1029.50
2019-05-14T02:05:44.238Z,1029.49
2019-05-14T02:06:45.373Z,1029.50
2019-05-14T02:07:15.802Z,1029.46
2019-05-14T02:07:44.254Z,1029.44
2019-05-14T02:08:13.725Z,1029.46
2019-05-14T02:09:12.733Z,1029.41
2019-05-14T02:09:42.784Z,1029.43
2019-05-14T02:10:12.726Z,1029.42
2019-05-14T02:10:42.786Z,1029.41
2019-05-14T02:11:42.793Z,1029.39
2019-05-14T02:12:12.724Z,1029.38
2019-05-14T02:12:42.798Z,1029.38
2019-05-14T02:13:13.726Z,1029.42
2019-05-14T02:14:12.730Z,1029.41
2019-05-14T02:14:42.794Z,1029.37
2019-05-14T02:15:13.722Z,1029.38
2019-05-14T02:15:43.796Z,1029.37
2019-05-14T02:16:42.795Z,1029.41
2019-05-14T02:17:15.314Z,1029.35
2019-05-14T02:17:42.794Z,1029.33
2019-05-14T02:18:14.366Z,1029.36
2019-05-14T02:18:42.784Z,1029.37
2019-05-14T02:19:15.330Z,1029.38
2019-05-14T02:19:43.784Z,1029.37
2019-05-14T02:20:12.524Z,1029.34
2019-05-14T02:20:42.804Z,1029.35
2019-05-14T02:21:12.724Z,1029.37
2019-05-14T02:21:43.785Z,1029.35
2019-05-14T02:22:12.732Z,1029.35
2019-05-14T02:22:42.788Z,1029.35
2019-05-14T02:23:13.730Z,1029.31
2019-05-14T02:24:12.736Z,1029.37
2019-05-14T02:24:42.793Z,1029.33
2019-05-14T02:25:12.722Z,1029.32
2019-05-14T02:25:42.798Z,1029.31
2019-05-14T02:26:44.131Z,1029.35
2019-05-14T02:27:13.734Z,1029.36
2019-05-14T02:27:45.396Z,1029.33
2019-05-14T02:28:12.730Z,1029.36
2019-05-14T02:29:12.440Z,1029.30
2019-05-14T02:29:45.116Z,1029.27
2019-05-14T02:30:10.720Z,1029.30
2019-05-14T02:30:57.339Z,1029.28
2019-05-14T02:31:11.741Z,1029.28
2019-05-14T02:31:40.800Z,1029.29
2019-05-14T02:32:12.725Z,1029.30
2019-05-14T02:32:41.792Z,1029.31
2019-05-14T02:33:10.717Z,1029.27
2019-05-14T02:34:11.736Z,1029.26
2019-05-14T02:34:41.789Z,1029.26
2019-05-14T02:35:11.726Z,1029.24
2019-05-14T02:35:41.794Z,1029.29
2019-05-14T02:36:41.792Z,1029.27
2019-05-14T02:37:14.260Z,1029.28
2019-05-14T02:37:41.786Z,1029.22
2019-05-14T02:38:11.725Z,1029.21
2019-05-14T02:38:40.791Z,1029.22
2019-05-14T02:39:14.266Z,1029.18
2019-05-14T02:39:42.814Z,1029.17
2019-05-14T02:40:11.733Z,1029.20
2019-05-14T02:40:41.791Z,1029.20
2019-05-14T02:41:40.798Z,1029.18
2019-05-14T02:42:11.733Z,1029.16
2019-05-14T02:42:41.787Z,1029.13
2019-05-14T02:43:11.722Z,1029.14
2019-05-14T02:44:11.724Z,1029.13
2019-05-14T02:44:42.798Z,1029.11
2019-05-14T02:45:10.738Z,1029.11
2019-05-14T02:46:01.786Z,1029.10
2019-05-14T02:46:41.791Z,1029.05
2019-05-14T02:47:11.729Z,1029.04
2019-05-14T02:47:44.381Z,1029.07
2019-05-14T02:48:11.727Z,1029.08
2019-05-14T02:48:41.780Z,1029.05
2019-05-14T02:49:12.764Z,1029.04
2019-05-14T02:49:44.388Z,1029.01
2019-05-14T02:50:11.727Z,1029.04
2019-05-14T02:50:41.789Z,1029.08
2019-05-14T02:51:11.728Z,1029.07
2019-05-14T02:51:40.809Z,1029.04
2019-05-14T02:52:11.730Z,1029.09
2019-05-14T02:52:41.791Z,1029.10
2019-05-14T02:53:11.736Z,1029.08
2019-05-14T02:53:40.799Z,1029.06
2019-05-14T02:54:11.731Z,1029.05
2019-05-14T02:54:41.790Z,1029.07
2019-05-14T02:55:11.734Z,1029.03
2019-05-14T02:55:40.885Z,1029.02
2019-05-14T02:56:41.792Z,1029.00
2019-05-14T02:57:12.734Z,1028.97
2019-05-14T02:57:40.826Z,1029.00
2019-05-14T02:58:15.489Z,1028.98
2019-05-14T02:59:11.749Z,1029.00
2019-05-14T02:59:41.789Z,1028.99
2019-05-14T03:00:14.125Z,1028.97
2019-05-14T03:00:42.805Z,1028.98
2019-05-14T03:01:42.805Z,1028.96
2019-05-14T03:02:11.750Z,1028.96
2019-05-14T03:02:41.802Z,1028.95
2019-05-14T03:03:11.729Z,1028.96
2019-05-14T03:04:10.730Z,1028.96
2019-05-14T03:04:41.795Z,1028.94
2019-05-14T03:05:11.726Z,1028.98
2019-05-14T03:05:41.793Z,1028.98
2019-05-14T03:06:41.792Z,1028.97
2019-05-14T03:07:12.737Z,1028.97
2019-05-14T03:07:41.799Z,1028.98
2019-05-14T03:08:10.881Z,1028.96
2019-05-14T03:09:11.735Z,1028.96
2019-05-14T03:09:41.785Z,1028.95
2019-05-14T03:10:11.741Z,1028.93
2019-05-14T03:10:43.543Z,1028.92
2019-05-14T03:11:44.356Z,1028.93
2019-05-14T03:12:11.736Z,1028.88
2019-05-14T03:12:41.819Z,1028.90
2019-05-14T03:13:11.737Z,1028.87
2019-05-14T03:14:10.724Z,1028.86
2019-05-14T03:14:41.787Z,1028.86
2019-05-14T03:15:11.734Z,1028.85
2019-05-14T03:15:40.791Z,1028.88
2019-05-14T03:16:41.792Z,1028.85
2019-05-14T03:17:12.740Z,1028.86
2019-05-14T03:17:41.799Z,1028.83
2019-05-14T03:18:10.761Z,1028.82
2019-05-14T03:19:14.135Z,1028.85
2019-05-14T03:19:42.807Z,1028.82
2019-05-14T03:20:10.734Z,1028.83
2019-05-14T03:20:40.792Z,1028.78
2019-05-14T03:21:41.793Z,1028.81
2019-05-14T03:22:14.322Z,1028.79
2019-05-14T03:22:58.381Z,1028.82
2019-05-14T03:23:19.487Z,1028.84
2019-05-14T03:23:40.801Z,1028.81
2019-05-14T03:24:11.733Z,1028.79
2019-05-14T03:24:41.799Z,1028.80
2019-05-14T03:25:11.791Z,1028.78
2019-05-14T03:25:41.799Z,1028.81
2019-05-14T03:26:41.791Z,1028.83
2019-05-14T03:27:11.738Z,1028.82
2019-05-14T03:27:41.804Z,1028.83
2019-05-14T03:28:10.740Z,1028.84
2019-05-14T03:29:11.738Z,1028.82
2019-05-14T03:29:44.463Z,1028.86
2019-05-14T03:30:13.835Z,1028.85
2019-05-14T03:30:51.933Z,1028.87
2019-05-14T03:31:44.490Z,1028.88
2019-05-14T03:32:14.154Z,1028.84
2019-05-14T03:32:45.421Z,1028.89
2019-05-14T03:33:20.583Z,1028.90
2019-05-14T03:34:15.755Z,1028.88
2019-05-14T03:34:45.818Z,1028.91
2019-05-14T03:35:15.761Z,1028.87
2019-05-14T03:35:51.526Z,1028.89
2019-05-14T03:36:51.728Z,1028.94
2019-05-14T03:37:15.764Z,1028.95
2019-05-14T03:37:40.794Z,1028.97
2019-05-14T03:38:11.749Z,1028.97
2019-05-14T03:38:41.800Z,1028.95
2019-05-14T03:39:11.736Z,1028.95
2019-05-14T03:39:41.801Z,1028.93
2019-05-14T03:40:14.398Z,1028.93
2019-05-14T03:40:41.798Z,1028.94
2019-05-14T03:41:41.800Z,1028.95
2019-05-14T03:42:13.418Z,1028.96
2019-05-14T03:42:41.803Z,1028.97
2019-05-14T03:43:10.738Z,1028.96
2019-05-14T03:43:40.800Z,1028.96
2019-05-14T03:44:11.741Z,1028.98
2019-05-14T03:44:41.804Z,1028.97
2019-05-14T03:45:10.745Z,1029.00
2019-05-14T03:45:40.801Z,1028.98
2019-05-14T03:46:11.734Z,1028.98
2019-05-14T03:46:54.502Z,1029.00
2019-05-14T03:47:12.745Z,1028.99
2019-05-14T03:47:41.799Z,1028.97
2019-05-14T03:48:11.742Z,1028.96
2019-05-14T03:48:41.804Z,1028.96
2019-05-14T03:49:10.732Z,1028.97
2019-05-14T03:49:41.802Z,1028.98
2019-05-14T03:50:11.734Z,1028.95
2019-05-14T03:50:44.477Z,1028.95
2019-05-14T03:51:10.731Z,1028.95
2019-05-14T03:51:40.806Z,1028.93
2019-05-14T03:52:11.733Z,1028.96
2019-05-14T03:52:43.491Z,1028.96
2019-05-14T03:53:11.961Z,1028.94
2019-05-14T03:54:00.903Z,1028.96
2019-05-14T03:54:43.991Z,1028.95
2019-05-14T03:55:11.742Z,1028.94
2019-05-14T03:55:41.876Z,1028.94
2019-05-14T03:56:11.743Z,1028.93
2019-05-14T03:56:41.804Z,1028.92
2019-05-14T03:57:11.746Z,1028.96
2019-05-14T03:57:41.827Z,1028.95
2019-05-14T03:58:11.753Z,1028.95
2019-05-14T03:58:40.800Z,1028.95
2019-05-14T03:59:11.751Z,1028.93
2019-05-14T03:59:41.846Z,1028.93
2019-05-14T04:00:11.750Z,1028.95
2019-05-14T04:00:40.795Z,1028.95
2019-05-14T04:01:14.145Z,1028.94
2019-05-14T04:01:41.818Z,1028.94
2019-05-14T04:02:11.749Z,1028.94
2019-05-14T04:02:40.811Z,1028.91
2019-05-14T04:03:13.167Z,1028.90
2019-05-14T04:03:41.807Z,1028.91
2019-05-14T04:04:14.473Z,1028.90
2019-05-14T04:04:41.807Z,1028.90
2019-05-14T04:05:11.751Z,1028.90
2019-05-14T04:05:41.806Z,1028.90
2019-05-14T04:06:11.741Z,1028.91
2019-05-14T04:06:41.819Z,1028.91
2019-05-14T04:07:11.744Z,1028.94
2019-05-14T04:07:40.816Z,1028.92
2019-05-14T04:08:11.738Z,1028.93
2019-05-14T04:08:40.797Z,1028.89
2019-05-14T04:09:11.741Z,1028.88
2019-05-14T04:09:41.808Z,1028.89
2019-05-14T04:10:11.786Z,1028.92
2019-05-14T04:10:50.442Z,1028.95
2019-05-14T04:11:11.745Z,1028.98
2019-05-14T04:11:44.490Z,1029.00
2019-05-14T04:12:11.750Z,1028.98
2019-05-14T04:12:41.816Z,1029.02
2019-05-14T04:13:10.754Z,1029.02
2019-05-14T04:13:42.492Z,1029.05
2019-05-14T04:14:11.748Z,1029.06
2019-05-14T04:14:44.467Z,1029.07
2019-05-14T04:15:11.760Z,1029.09
2019-05-14T04:15:40.804Z,1029.08
2019-05-14T04:16:10.742Z,1029.06
2019-05-14T04:16:59.751Z,1029.08
2019-05-14T04:17:20.044Z,1029.06
2019-05-14T04:17:42.813Z,1029.08
2019-05-14T04:18:10.753Z,1029.10
2019-05-14T04:18:42.822Z,1029.10
2019-05-14T04:19:11.750Z,1029.11
2019-05-14T04:19:41.812Z,1029.11
2019-05-14T04:20:11.785Z,1029.12
2019-05-14T04:20:40.820Z,1029.13
2019-05-14T04:21:11.754Z,1029.14
2019-05-14T04:22:14.152Z,1029.18
2019-05-14T04:22:40.819Z,1029.14
2019-05-14T04:23:10.767Z,1029.11
2019-05-14T04:23:41.811Z,1029.12
2019-05-14T04:24:42.837Z,1029.13
2019-05-14T04:25:19.153Z,1029.11
2019-05-14T04:25:40.857Z,1029.13
2019-05-14T04:26:10.747Z,1029.14
2019-05-14T04:27:14.019Z,1029.10
2019-05-14T04:27:41.811Z,1029.10
2019-05-14T04:28:11.747Z,1029.12
2019-05-14T04:28:40.815Z,1029.12
2019-05-14T04:29:41.807Z,1029.09
2019-05-14T04:30:11.771Z,1029.09
2019-05-14T04:30:41.828Z,1029.06
2019-05-14T04:31:11.750Z,1029.06
2019-05-14T04:31:40.802Z,1029.05
2019-05-14T04:32:11.850Z,1029.09
2019-05-14T04:32:44.296Z,1029.07
2019-05-14T04:33:12.755Z,1029.10
2019-05-14T04:33:40.808Z,1029.07
2019-05-14T04:34:42.285Z,1029.00
2019-05-14T04:35:11.757Z,1029.02
2019-05-14T04:35:48.918Z,1029.02
2019-05-14T04:36:11.746Z,1029.05
2019-05-14T04:36:40.806Z,1029.05
2019-05-14T04:37:11.756Z,1029.03
2019-05-14T04:37:41.808Z,1029.01
2019-05-14T04:38:11.747Z,1029.00
2019-05-14T04:38:42.816Z,1028.98
2019-05-14T04:39:41.810Z,1029.05
2019-05-14T04:40:11.756Z,1029.04
2019-05-14T04:40:41.811Z,1029.05
2019-05-14T04:41:11.751Z,1029.05
2019-05-14T04:41:40.829Z,1029.03
2019-05-14T04:42:11.759Z,1029.05
2019-05-14T04:42:41.816Z,1029.06
2019-05-14T04:43:14.138Z,1029.03
2019-05-14T04:43:41.808Z,1029.03
2019-05-14T04:44:41.811Z,1029.02
2019-05-14T04:45:13.152Z,1029.03
2019-05-14T04:45:41.812Z,1029.07
2019-05-14T04:46:19.348Z,1029.08
2019-05-14T04:47:30.375Z,1029.09
2019-05-14T04:47:42.832Z,1029.12
2019-05-14T04:48:28.768Z,1029.12
2019-05-14T04:48:45.833Z,1029.11
2019-05-14T04:49:41.815Z,1029.16
2019-05-14T04:50:12.774Z,1029.14
2019-05-14T04:50:41.917Z,1029.19
2019-05-14T04:51:11.746Z,1029.20
2019-05-14T04:52:11.752Z,1029.26
2019-05-14T04:52:41.895Z,1029.25
2019-05-14T04:53:10.768Z,1029.23
2019-05-14T04:53:44.299Z,1029.18
2019-05-14T04:54:41.814Z,1029.16
2019-05-14T04:55:11.758Z,1029.15
2019-05-14T04:55:42.359Z,1029.14
2019-05-14T04:56:11.749Z,1029.17
2019-05-14T04:57:11.759Z,1029.22
2019-05-14T04:57:41.818Z,1029.20
2019-05-14T04:58:11.760Z,1029.18
2019-05-14T04:58:42.826Z,1029.16
2019-05-14T04:59:41.826Z,1029.09
2019-05-14T05:00:13.771Z,1029.10
2019-05-14T05:00:40.815Z,1029.11
2019-05-14T05:01:11.788Z,1029.15
2019-05-14T05:02:11.766Z,1029.21
2019-05-14T05:02:41.827Z,1029.23
2019-05-14T05:03:13.774Z,1029.26
2019-05-14T05:03:41.824Z,1029.27
2019-05-14T05:04:42.821Z,1029.24
2019-05-14T05:05:10.777Z,1029.25
2019-05-14T05:05:40.818Z,1029.24
2019-05-14T05:06:12.173Z,1029.25
2019-05-14T05:07:18.816Z,1029.23
2019-05-14T05:07:41.833Z,1029.22
2019-05-14T05:08:19.854Z,1029.22
2019-05-14T05:08:41.817Z,1029.17
2019-05-14T05:09:41.819Z,1029.16
2019-05-14T05:10:11.753Z,1029.15
2019-05-14T05:10:41.810Z,1029.14
2019-05-14T05:11:11.786Z,1029.14
2019-05-14T05:12:10.746Z,1029.12
2019-05-14T05:12:40.813Z,1029.10
2019-05-14T05:13:10.751Z,1029.10
2019-05-14T05:13:41.822Z,1029.13
2019-05-14T05:14:10.760Z,1029.13
2019-05-14T05:14:44.360Z,1029.15
2019-05-14T05:15:11.762Z,1029.16
2019-05-14T05:15:40.829Z,1029.17
2019-05-14T05:16:11.759Z,1029.19
2019-05-14T05:17:10.750Z,1029.17
2019-05-14T05:17:52.944Z,1029.19
2019-05-14T05:18:11.765Z,1029.17
2019-05-14T05:18:41.819Z,1029.20
2019-05-14T05:19:46.226Z,1029.17
2019-05-14T05:20:11.767Z,1029.19
2019-05-14T05:20:40.815Z,1029.17
2019-05-14T05:21:10.756Z,1029.15
2019-05-14T05:21:40.816Z,1029.13
2019-05-14T05:22:10.754Z,1029.12
2019-05-14T05:22:41.825Z,1029.11
2019-05-14T05:23:10.752Z,1029.12
2019-05-14T05:23:40.817Z,1029.12
2019-05-14T05:24:10.747Z,1029.11
2019-05-14T05:24:40.820Z,1029.10
2019-05-14T05:25:14.133Z,1029.08
2019-05-14T05:25:40.819Z,1029.08
2019-05-14T05:26:10.752Z,1029.10
2019-05-14T05:26:40.815Z,1029.10
2019-05-14T05:27:12.153Z,1029.12
2019-05-14T05:27:40.819Z,1029.11
2019-05-14T05:28:13.110Z,1029.10
2019-05-14T05:28:40.821Z,1029.11
2019-05-14T05:29:11.769Z,1029.09
2019-05-14T05:29:40.824Z,1029.12
2019-05-14T05:30:10.806Z,1029.14
2019-05-14T05:30:40.836Z,1029.13
2019-05-14T05:31:10.770Z,1029.15
2019-05-14T05:31:40.833Z,1029.12
2019-05-14T05:32:10.864Z,1029.10
2019-05-14T05:32:40.821Z,1029.13
2019-05-14T05:33:10.798Z,1029.19
2019-05-14T05:33:40.818Z,1029.14
2019-05-14T05:34:10.757Z,1029.14
2019-05-14T05:34:40.822Z,1029.16
2019-05-14T05:35:11.767Z,1029.15
2019-05-14T05:35:44.257Z,1029.11
2019-05-14T05:36:11.762Z,1029.13
2019-05-14T05:36:40.820Z,1029.14
2019-05-14T05:37:10.767Z,1029.13
2019-05-14T05:37:42.262Z,1029.15
2019-05-14T05:38:10.774Z,1029.15
2019-05-14T05:38:44.242Z,1029.20
2019-05-14T05:39:10.752Z,1029.21
2019-05-14T05:39:40.829Z,1029.17
2019-05-14T05:40:10.764Z,1029.17
2019-05-14T05:40:40.814Z,1029.17
2019-05-14T05:41:10.757Z,1029.13
2019-05-14T05:41:40.840Z,1029.13
2019-05-14T05:42:10.754Z,1029.12
2019-05-14T05:42:40.820Z,1029.13
2019-05-14T05:43:10.757Z,1029.14
2019-05-14T05:43:40.815Z,1029.13
2019-05-14T05:44:10.763Z,1029.15
2019-05-14T05:44:40.833Z,1029.13
2019-05-14T05:45:10.763Z,1029.16
2019-05-14T05:45:40.825Z,1029.15
2019-05-14T05:46:14.147Z,1029.15
2019-05-14T05:46:43.843Z,1029.15
2019-05-14T05:47:10.759Z,1029.18
2019-05-14T05:47:55.162Z,1029.17
2019-05-14T05:48:12.155Z,1029.17
2019-05-14T05:48:40.854Z,1029.18
2019-05-14T05:49:13.123Z,1029.17
2019-05-14T05:49:40.819Z,1029.16
2019-05-14T05:50:10.784Z,1029.19
2019-05-14T05:50:40.827Z,1029.19
2019-05-14T05:51:10.759Z,1029.18
2019-05-14T05:51:40.827Z,1029.21
2019-05-14T05:52:10.761Z,1029.23
2019-05-14T05:52:40.821Z,1029.22
2019-05-14T05:53:10.761Z,1029.22
2019-05-14T05:53:40.840Z,1029.17
2019-05-14T05:54:10.759Z,1029.18
2019-05-14T05:54:40.820Z,1029.17
2019-05-14T05:55:10.757Z,1029.15
2019-05-14T05:55:40.821Z,1029.16
2019-05-14T05:56:10.756Z,1029.16
2019-05-14T05:56:44.258Z,1029.16
2019-05-14T05:57:10.759Z,1029.16
2019-05-14T05:57:40.826Z,1029.17
2019-05-14T05:58:10.769Z,1029.16
2019-05-14T05:58:42.129Z,1029.12
2019-05-14T05:59:11.769Z,1029.10
2019-05-14T05:59:43.107Z,1029.10
2019-05-14T06:00:10.783Z,1029.09
2019-05-14T06:00:41.841Z,1029.09
2019-05-14T06:01:11.772Z,1029.07
2019-05-14T06:01:46.553Z,1029.06
2019-05-14T06:02:10.765Z,1029.05
2019-05-14T06:02:41.830Z,1029.04
2019-05-14T06:03:11.771Z,1029.04
2019-05-14T06:03:40.824Z,1029.00
2019-05-14T06:04:10.766Z,1028.97
2019-05-14T06:04:40.818Z,1029.00
2019-05-14T06:05:10.764Z,1028.98
2019-05-14T06:05:40.832Z,1029.01
2019-05-14T06:06:13.843Z,1028.99
2019-05-14T06:06:40.821Z,1028.98
2019-05-14T06:07:13.241Z,1028.99
2019-05-14T06:07:41.832Z,1028.98
2019-05-14T06:08:10.771Z,1028.96
2019-05-14T06:08:40.837Z,1028.97
2019-05-14T06:09:12.248Z,1028.95
2019-05-14T06:09:40.839Z,1028.97
2019-05-14T06:10:13.201Z,1028.98
2019-05-14T06:10:41.833Z,1028.96
2019-05-14T06:11:10.759Z,1028.95
2019-05-14T06:11:40.824Z,1028.96
2019-05-14T06:12:10.759Z,1028.95
2019-05-14T06:12:40.835Z,1028.94
2019-05-14T06:13:13.733Z,1028.97
2019-05-14T06:13:40.881Z,1028.93
2019-05-14T06:14:10.765Z,1028.95
2019-05-14T06:14:40.881Z,1028.95
2019-05-14T06:15:13.865Z,1028.93
2019-05-14T06:15:49.278Z,1028.91
2019-05-14T06:16:11.769Z,1028.88
2019-05-14T06:16:40.822Z,1028.89
2019-05-14T06:17:10.774Z,1028.88
2019-05-14T06:17:43.338Z,1028.85
2019-05-14T06:18:19.121Z,1028.83
2019-05-14T06:18:40.836Z,1028.82
2019-05-14T06:19:10.767Z,1028.84
2019-05-14T06:19:42.357Z,1028.85
2019-05-14T06:20:10.767Z,1028.82
2019-05-14T06:20:43.325Z,1028.84
2019-05-14T06:21:10.768Z,1028.83
2019-05-14T06:21:41.837Z,1028.80
2019-05-14T06:22:11.769Z,1028.78
2019-05-14T06:22:40.833Z,1028.81
2019-05-14T06:23:10.779Z,1028.77
2019-05-14T06:23:41.041Z,1028.76
2019-05-14T06:24:10.878Z,1028.79
2019-05-14T06:24:40.828Z,1028.75
2019-05-14T06:25:11.873Z,1028.74
2019-05-14T06:25:41.830Z,1028.72
2019-05-14T06:26:12.783Z,1028.77
2019-05-14T06:26:40.828Z,1028.73
2019-05-14T06:27:10.761Z,1028.77
2019-05-14T06:27:40.830Z,1028.76
2019-05-14T06:28:13.515Z,1028.74
2019-05-14T06:28:42.837Z,1028.77
2019-05-14T06:29:10.771Z,1028.76
2019-05-14T06:29:40.829Z,1028.73
2019-05-14T06:30:12.495Z,1028.72
2019-05-14T06:30:41.838Z,1028.74
2019-05-14T06:31:14.338Z,1028.71
2019-05-14T06:31:40.832Z,1028.75
2019-05-14T06:32:10.770Z,1028.78
2019-05-14T06:32:40.836Z,1028.77
2019-05-14T06:33:10.795Z,1028.77
2019-05-14T06:33:41.837Z,1028.77
2019-05-14T06:34:11.780Z,1028.74
2019-05-14T06:34:40.830Z,1028.73
2019-05-14T06:35:10.811Z,1028.72
2019-05-14T06:35:41.840Z,1028.71
2019-05-14T06:36:14.243Z,1028.70
2019-05-14T06:36:41.834Z,1028.69
2019-05-14T06:37:10.771Z,1028.71